ASN logo
Last updated: 19 February 2020
Statuts:Enquête Préliminaire
Date:lundi 21 décembre 2009
Heure:01:51
Type/Sous-type:Silhouette image of generic B733 model; specific model in this crash may look slightly different
Boeing 737-301
Compagnie:Merpati Nusantara Airlines
Immatriculation: PK-MDH
Numéro de série: 23932/1554
Année de Fabrication: 1988-05-09 (21 years 8 months)
Moteurs: 2 CFMI CFM56-3B2
Equipage:victimes: 0 / à bord: 6
Passagers:victimes: 0 / à bord: 102
Total:victimes: 0 / à bord: 108
Dégats de l'appareil: Substantiels
Conséquences: Written off (damaged beyond repair)
Lieu de l'accident:Makassar-Sultan Hasanuddin International Airport (UPG) (   Indonésie)
Phase de vol: A l'atterrissage (LDG)
Nature:Transport de Passagers Nat.
Aéroport de départ:Surabaya Airport (SUB/WARR), Indonésie
Aéroport de destination:Makassar-Sultan Hasanuddin International Airport (UPG/WAAA), Indonésie
Numéro de vol:MZ766
Détails:
The Boeing 737-301 operating Merpati Nusantara Airlines flight 766, suffered a landing accident at Makassar-Sultan Hasanuddin International Airport (UPG), Indonesia.
The aircraft operated on a flight from Surabaya to Jayapura with an en route stop at Makassar. The aircraft descended quickly from a height of 50 feet and landed hard. A nose landing gear tire burst and the aircraft sustained damage to the fuselage.

Sources:
» National Transportation Safety Committee (NTSC)
» Detik.com

METAR Weather report:
17:30 UTC / 01:30 local time:
WAAA 201730Z 06003KT 6000 R13///// R21///// BKN019 24/24 Q1014

18:00 UTC / 02:00 local time:
WAAA 201800Z 34011KT 6000 R13///// R21///// RA BKN019 24/24 Q1014


Photos

photo of Boeing-737-301-PK-MDH
accident date: 21-12-2009
type: Boeing 737-301
registration: PK-MDH
 

Plan
Ce plan montre l'aéroport de départ ainsi que la supposée destination du vol. La ligne fixe reliant les deux aéroports n'est pas le plan de vol exact.
La distance entre Surabaya Airport et Makassar-Sultan Hasanuddin International Airport est de 788 km (492 miles).

Les informations ci-dessus ne représentent pas l'opinion de la 'Flight Safety Foundation' ou de 'Aviation Safety Network' sur les causes de l'accident. Ces informations prélimimaires sont basées sur les faits tel qu'ils sont connus à ce jour.
languages: languages

Share

Boeing 737-300

  • 1113 built
  • 19ème loss
» safety profile